createdAt,value
2023-08-09T00:02:20.226Z,49.55
2023-08-09T00:04:48.556Z,49.80
2023-08-09T00:07:15.517Z,49.71
2023-08-09T00:09:42.588Z,49.74
2023-08-09T00:12:09.569Z,50.07
2023-08-09T00:14:36.553Z,50.55
2023-08-09T00:17:04.005Z,50.45
2023-08-09T00:19:31.517Z,50.59
2023-08-09T00:21:59.905Z,50.88
2023-08-09T00:24:26.897Z,51.06
2023-08-09T00:26:53.868Z,51.17
2023-08-09T00:29:20.852Z,51.31
2023-08-09T00:31:47.925Z,51.46
2023-08-09T00:34:14.935Z,51.69
2023-08-09T00:36:42.005Z,51.79
2023-08-09T00:39:10.360Z,51.67
2023-08-09T00:41:37.392Z,52.11
2023-08-09T00:44:04.594Z,52.23
2023-08-09T00:46:31.655Z,52.35
2023-08-09T00:48:58.913Z,52.29
2023-08-09T00:51:26.002Z,52.58
2023-08-09T00:53:53.150Z,52.83
2023-08-09T00:56:21.676Z,52.76
2023-08-09T00:58:48.735Z,52.99
2023-08-09T01:01:15.867Z,52.99
2023-08-09T01:03:44.859Z,53.03
2023-08-09T01:06:24.040Z,53.03
2023-08-09T01:09:01.825Z,53.50
2023-08-09T01:11:41.961Z,53.54
2023-08-09T01:14:13.016Z,53.84
2023-08-09T01:16:41.258Z,54.99
2023-08-09T01:19:26.650Z,54.43
2023-08-09T01:21:58.044Z,54.58
2023-08-09T01:24:27.216Z,54.36
2023-08-09T01:26:54.234Z,54.38
2023-08-09T01:29:21.257Z,54.44
2023-08-09T01:31:48.261Z,54.57
2023-08-09T01:34:16.500Z,54.51
2023-08-09T01:36:48.660Z,54.49
2023-08-09T01:39:23.496Z,54.41
2023-08-09T01:41:52.656Z,54.52
2023-08-09T01:44:21.146Z,54.50
2023-08-09T01:46:48.747Z,54.68
2023-08-09T01:49:22.227Z,54.86
2023-08-09T01:51:49.719Z,55.00
2023-08-09T01:54:18.430Z,55.09
2023-08-09T01:56:46.258Z,55.11
2023-08-09T01:59:15.781Z,55.31
2023-08-09T02:01:42.967Z,55.37
2023-08-09T02:04:10.267Z,55.55
2023-08-09T02:06:39.518Z,55.86
2023-08-09T02:09:07.900Z,55.48
2023-08-09T02:11:34.952Z,55.71
2023-08-09T02:14:02.026Z,55.52
2023-08-09T02:16:30.483Z,55.59
2023-08-09T02:18:57.473Z,55.86
2023-08-09T02:21:24.496Z,56.09
2023-08-09T02:23:51.479Z,56.19
2023-08-09T02:26:19.680Z,56.30
2023-08-09T02:28:47.094Z,56.76
2023-08-09T02:31:14.131Z,56.69
2023-08-09T02:33:42.792Z,56.64
2023-08-09T02:36:09.801Z,56.68
2023-08-09T02:38:36.962Z,56.74
2023-08-09T02:41:07.133Z,57.02
2023-08-09T02:43:34.119Z,56.86
2023-08-09T02:46:01.105Z,57.21
2023-08-09T02:48:28.465Z,57.19
2023-08-09T02:50:56.966Z,57.17
2023-08-09T02:53:34.612Z,57.26
2023-08-09T02:56:01.799Z,57.25
2023-08-09T02:58:28.788Z,57.28
2023-08-09T03:00:55.749Z,57.23
2023-08-09T03:03:22.858Z,57.46
2023-08-09T03:05:50.522Z,57.48
2023-08-09T03:08:18.853Z,57.44
2023-08-09T03:10:47.557Z,57.42
2023-08-09T03:13:15.730Z,57.14
2023-08-09T03:15:42.755Z,57.60
2023-08-09T03:18:10.717Z,57.42
2023-08-09T03:20:38.335Z,57.19
2023-08-09T03:23:05.834Z,57.37
2023-08-09T03:25:35.314Z,57.24
2023-08-09T03:28:02.275Z,57.55
2023-08-09T03:30:29.330Z,57.30
2023-08-09T03:32:56.329Z,57.55
2023-08-09T03:35:23.391Z,57.38
2023-08-09T03:37:50.856Z,57.46
2023-08-09T03:40:17.890Z,57.69
2023-08-09T03:42:46.376Z,57.40
2023-08-09T03:45:13.579Z,57.44
2023-08-09T03:47:40.897Z,57.61
2023-08-09T03:50:08.736Z,57.57
2023-08-09T03:52:35.785Z,57.57
2023-08-09T03:55:02.990Z,57.60
2023-08-09T03:57:30.172Z,57.47
2023-08-09T03:59:58.530Z,57.37
2023-08-09T04:02:25.883Z,57.28
2023-08-09T04:04:52.940Z,57.26
2023-08-09T04:07:20.672Z,57.15
2023-08-09T04:09:47.747Z,57.34
2023-08-09T04:12:14.728Z,57.36
2023-08-09T04:14:41.724Z,57.33
2023-08-09T04:17:10.045Z,57.22
2023-08-09T04:19:37.052Z,57.36
2023-08-09T04:22:05.472Z,57.27
2023-08-09T04:24:32.543Z,57.31
2023-08-09T04:27:00.897Z,57.38
2023-08-09T04:29:28.437Z,57.41
2023-08-09T04:31:55.395Z,57.32
2023-08-09T04:34:24.532Z,57.17
2023-08-09T04:36:55.764Z,57.19
2023-08-09T04:39:24.918Z,57.40
2023-08-09T04:41:51.925Z,57.21
2023-08-09T04:44:18.939Z,57.23
2023-08-09T04:46:45.894Z,57.27
2023-08-09T04:49:13.299Z,57.44
2023-08-09T04:51:41.754Z,57.39
2023-08-09T04:54:08.703Z,57.28
2023-08-09T04:56:35.692Z,57.10
2023-08-09T04:59:02.682Z,57.20
2023-08-09T05:01:29.701Z,57.29
2023-08-09T05:03:56.821Z,57.11
2023-08-09T05:06:23.990Z,56.94
2023-08-09T05:08:52.291Z,56.93
2023-08-09T05:11:19.277Z,57.10
2023-08-09T05:13:46.542Z,56.83
2023-08-09T05:16:13.629Z,56.98
2023-08-09T05:18:40.603Z,56.78
2023-08-09T05:21:07.616Z,56.59
2023-08-09T05:23:34.812Z,56.54
2023-08-09T05:26:03.149Z,56.35
2023-08-09T05:28:30.124Z,56.37
2023-08-09T05:30:57.160Z,56.20
2023-08-09T05:33:24.181Z,56.16
2023-08-09T05:35:51.380Z,55.95
2023-08-09T05:38:18.322Z,55.99
2023-08-09T05:40:45.318Z,55.52
2023-08-09T05:43:14.239Z,55.39
2023-08-09T05:45:42.866Z,55.05
2023-08-09T05:48:09.866Z,55.15
2023-08-09T05:50:36.850Z,55.27
2023-08-09T05:53:04.306Z,54.85
2023-08-09T05:55:31.291Z,54.59
2023-08-09T05:57:58.254Z,54.59
2023-08-09T06:00:26.599Z,54.63
2023-08-09T06:02:54.001Z,54.67
2023-08-09T06:05:24.854Z,54.45
2023-08-09T06:07:51.872Z,54.15
2023-08-09T06:10:20.516Z,54.38
2023-08-09T06:12:48.027Z,53.98
2023-08-09T06:15:15.226Z,54.10
2023-08-09T06:17:43.790Z,54.32
2023-08-09T06:20:15.132Z,54.17
2023-08-09T06:22:42.717Z,54.01
2023-08-09T06:25:10.376Z,53.70
2023-08-09T06:27:37.769Z,53.35
2023-08-09T06:30:07.204Z,53.10
2023-08-09T06:32:34.409Z,53.28
2023-08-09T06:35:02.995Z,53.15
2023-08-09T06:37:30.029Z,53.30
2023-08-09T06:39:58.806Z,52.46
2023-08-09T06:42:25.806Z,52.36
2023-08-09T06:44:52.799Z,52.28
2023-08-09T06:47:19.780Z,52.46
2023-08-09T06:49:46.737Z,51.72
2023-08-09T06:52:15.099Z,52.28
2023-08-09T06:54:42.105Z,51.54
2023-08-09T06:57:09.220Z,51.63
2023-08-09T06:59:36.259Z,50.68
2023-08-09T07:02:03.306Z,51.13
2023-08-09T07:04:30.413Z,51.23
2023-08-09T07:06:57.465Z,50.58
2023-08-09T07:09:25.868Z,50.18
2023-08-09T07:11:52.869Z,49.56
2023-08-09T07:14:19.860Z,49.58
2023-08-09T07:16:46.813Z,49.72
2023-08-09T07:19:13.785Z,49.22
2023-08-09T07:21:41.429Z,49.30
2023-08-09T07:24:08.392Z,49.17
2023-08-09T07:26:36.736Z,48.80
2023-08-09T07:29:04.263Z,48.46
2023-08-09T07:31:31.818Z,48.12
2023-08-09T07:33:58.787Z,48.03
2023-08-09T07:36:28.162Z,47.66
2023-08-09T07:38:55.407Z,47.48
2023-08-09T07:41:22.436Z,47.29
2023-08-09T07:43:50.786Z,47.33
2023-08-09T07:46:17.900Z,47.04
2023-08-09T07:48:45.016Z,46.17
2023-08-09T07:51:13.176Z,45.97
2023-08-09T07:53:41.241Z,45.82
2023-08-09T07:56:09.877Z,44.26
2023-08-09T07:58:36.812Z,42.31
2023-08-09T08:01:05.330Z,41.28
2023-08-09T08:03:32.517Z,41.21
2023-08-09T08:06:00.447Z,40.53
2023-08-09T08:08:28.938Z,40.25
2023-08-09T08:10:56.006Z,41.19
2023-08-09T08:13:23.437Z,40.71
2023-08-09T08:15:51.542Z,40.84
2023-08-09T08:18:20.041Z,39.83
2023-08-09T08:20:47.061Z,38.90
2023-08-09T08:23:14.021Z,37.41
2023-08-09T08:25:41.076Z,37.05
2023-08-09T08:28:08.117Z,36.02
2023-08-09T08:30:35.217Z,34.07
2023-08-09T08:33:02.951Z,32.12
2023-08-09T08:35:37.393Z,29.76
2023-08-09T08:38:04.701Z,29.44
2023-08-09T08:40:32.744Z,28.52
2023-08-09T08:43:00.398Z,27.67
2023-08-09T08:45:27.669Z,27.78
2023-08-09T08:47:54.709Z,28.76
2023-08-09T08:50:24.944Z,28.92
2023-08-09T08:52:54.421Z,28.95
2023-08-09T08:55:21.556Z,28.65
2023-08-09T08:57:48.613Z,28.49
2023-08-09T09:00:26.748Z,28.20
2023-08-09T09:02:54.748Z,27.41
2023-08-09T09:05:21.881Z,27.75
2023-08-09T09:07:51.692Z,27.68
2023-08-09T09:10:22.431Z,26.96
2023-08-09T09:12:51.975Z,26.22
2023-08-09T09:15:19.333Z,25.41
2023-08-09T09:17:47.476Z,25.84
2023-08-09T09:20:20.117Z,24.43
2023-08-09T09:22:47.987Z,24.35
2023-08-09T09:25:18.533Z,23.67
2023-08-09T09:27:53.331Z,23.55
2023-08-09T09:30:25.182Z,23.55
2023-08-09T09:32:58.763Z,23.39
2023-08-09T09:35:29.276Z,22.39
2023-08-09T09:38:01.400Z,21.25
2023-08-09T09:40:36.184Z,21.73
2023-08-09T09:43:07.572Z,22.25
2023-08-09T09:45:38.057Z,22.96
2023-08-09T09:48:14.904Z,24.40
2023-08-09T09:50:43.007Z,24.62
2023-08-09T09:53:14.494Z,23.80
2023-08-09T09:55:41.989Z,23.04
2023-08-09T09:58:10.538Z,22.08
2023-08-09T10:00:42.935Z,22.39
2023-08-09T10:03:11.995Z,22.19
2023-08-09T10:05:44.394Z,22.20
2023-08-09T10:08:15.123Z,23.15
2023-08-09T10:10:45.523Z,22.92
2023-08-09T10:13:19.879Z,23.04
2023-08-09T10:15:54.542Z,22.63
2023-08-09T10:18:30.731Z,21.74
2023-08-09T10:21:01.426Z,22.37
2023-08-09T10:23:31.199Z,23.23
2023-08-09T10:25:59.566Z,23.86
2023-08-09T10:28:49.273Z,24.31
2023-08-09T10:31:47.296Z,25.50
2023-08-09T10:34:14.551Z,26.33
2023-08-09T10:36:41.650Z,25.93
2023-08-09T10:39:15.728Z,25.51
2023-08-09T10:41:59.803Z,25.04
2023-08-09T10:44:35.965Z,24.83
2023-08-09T10:47:05.841Z,25.06
2023-08-09T10:50:01.855Z,25.55
2023-08-09T10:52:36.740Z,25.63
2023-08-09T10:55:29.504Z,26.47
2023-08-09T10:57:58.980Z,26.63
2023-08-09T11:00:36.413Z,27.18
2023-08-09T11:03:05.201Z,27.59
2023-08-09T11:05:32.556Z,27.95
2023-08-09T11:08:09.331Z,28.19
2023-08-09T11:10:37.911Z,28.70
2023-08-09T11:13:08.360Z,29.21
2023-08-09T11:15:38.095Z,29.25
2023-08-09T11:18:06.244Z,29.60
2023-08-09T11:20:33.337Z,29.29
2023-08-09T11:23:02.968Z,29.27
2023-08-09T11:25:33.199Z,29.87
2023-08-09T11:28:03.158Z,30.05
2023-08-09T11:30:32.538Z,30.11
2023-08-09T11:33:04.639Z,29.92
2023-08-09T11:35:41.362Z,29.74
2023-08-09T11:38:11.323Z,30.04
2023-08-09T11:40:44.969Z,29.97
2023-08-09T11:43:14.939Z,29.79
2023-08-09T11:45:50.823Z,29.88
2023-08-09T11:48:31.682Z,30.19
2023-08-09T11:51:13.449Z,30.63
2023-08-09T11:53:42.695Z,29.99
2023-08-09T11:56:16.930Z,29.89
2023-08-09T11:58:46.310Z,29.66
2023-08-09T12:01:16.084Z,29.80
2023-08-09T12:03:46.386Z,30.13
2023-08-09T12:06:13.530Z,29.88
2023-08-09T12:08:40.678Z,30.16
2023-08-09T12:11:07.870Z,29.88
2023-08-09T12:13:35.169Z,30.36
2023-08-09T12:16:07.451Z,30.12
2023-08-09T12:18:36.814Z,30.37
2023-08-09T12:21:08.103Z,29.60
2023-08-09T12:23:37.892Z,30.05
2023-08-09T12:26:05.392Z,30.13
2023-08-09T12:28:32.455Z,30.47
2023-08-09T12:31:00.145Z,30.46
2023-08-09T12:33:28.347Z,30.92
2023-08-09T12:35:55.424Z,30.72
2023-08-09T12:38:25.126Z,31.15
2023-08-09T12:40:52.197Z,30.61
2023-08-09T12:43:19.439Z,30.65
2023-08-09T12:45:46.593Z,30.69
2023-08-09T12:48:13.694Z,30.26
2023-08-09T12:50:41.225Z,30.02
2023-08-09T12:53:09.147Z,29.76
2023-08-09T12:55:37.904Z,29.62
2023-08-09T12:58:05.104Z,29.52
2023-08-09T13:00:32.456Z,29.46
2023-08-09T13:02:59.563Z,29.78
2023-08-09T13:05:26.733Z,29.80
2023-08-09T13:07:53.873Z,30.08
2023-08-09T13:10:21.980Z,30.34
2023-08-09T13:12:50.364Z,30.40
2023-08-09T13:15:18.344Z,30.25
2023-08-09T13:17:45.411Z,29.73
2023-08-09T13:20:13.601Z,30.24
2023-08-09T13:22:41.240Z,30.65
2023-08-09T13:25:09.930Z,30.23
2023-08-09T13:27:37.442Z,30.92
2023-08-09T13:30:11.273Z,30.04
2023-08-09T13:32:38.447Z,30.19
2023-08-09T13:35:08.170Z,30.49
2023-08-09T13:37:35.170Z,30.40
2023-08-09T13:40:02.141Z,30.20
2023-08-09T13:42:29.168Z,30.18
2023-08-09T13:44:56.652Z,30.51
2023-08-09T13:47:24.942Z,30.21
2023-08-09T13:49:51.903Z,30.38
2023-08-09T13:52:18.905Z,30.07
2023-08-09T13:54:45.846Z,30.22
2023-08-09T13:57:13.088Z,30.14
2023-08-09T13:59:40.130Z,30.40
2023-08-09T14:02:08.601Z,30.68
2023-08-09T14:04:37.523Z,30.27
2023-08-09T14:07:05.495Z,30.41
2023-08-09T14:09:32.848Z,30.17
2023-08-09T14:12:00.184Z,30.20
2023-08-09T14:14:28.414Z,30.37
2023-08-09T14:16:55.370Z,31.04
2023-08-09T14:19:22.456Z,30.98
2023-08-09T14:21:50.883Z,31.06
2023-08-09T14:24:18.560Z,31.45
2023-08-09T14:26:46.073Z,31.73
2023-08-09T14:29:15.494Z,31.80
2023-08-09T14:31:42.842Z,31.39
2023-08-09T14:34:10.184Z,31.73
2023-08-09T14:36:37.271Z,31.73
2023-08-09T14:39:06.939Z,31.74
2023-08-09T14:41:33.955Z,31.87
2023-08-09T14:44:00.975Z,31.69
2023-08-09T14:46:28.381Z,31.06
2023-08-09T14:49:10.133Z,30.95
2023-08-09T14:51:39.168Z,31.02
2023-08-09T14:54:08.293Z,30.70
2023-08-09T14:56:35.524Z,31.04
2023-08-09T14:59:02.760Z,30.88
2023-08-09T15:01:31.154Z,30.96
2023-08-09T15:03:58.111Z,30.85
2023-08-09T15:06:25.114Z,30.90
2023-08-09T15:08:52.060Z,30.96
2023-08-09T15:11:20.332Z,31.07
2023-08-09T15:13:47.726Z,30.75
2023-08-09T15:16:14.714Z,31.13
2023-08-09T15:18:41.812Z,31.26
2023-08-09T15:21:08.844Z,31.59
2023-08-09T15:23:35.874Z,31.69
2023-08-09T15:26:03.064Z,31.42
2023-08-09T15:28:33.166Z,32.13
2023-08-09T15:31:00.283Z,32.41
2023-08-09T15:33:27.376Z,32.74
2023-08-09T15:35:54.348Z,32.53
2023-08-09T15:38:21.363Z,32.87
2023-08-09T15:40:48.533Z,32.70
2023-08-09T15:43:15.611Z,32.49
2023-08-09T15:45:43.979Z,32.49
2023-08-09T15:48:11.033Z,32.67
2023-08-09T15:50:38.224Z,32.58
2023-08-09T15:53:05.511Z,32.52
2023-08-09T15:55:32.503Z,32.63
2023-08-09T15:57:59.814Z,32.51
2023-08-09T16:00:27.320Z,32.40
2023-08-09T16:02:57.389Z,32.67
2023-08-09T16:05:24.884Z,33.22
2023-08-09T16:07:51.875Z,33.30
2023-08-09T16:10:19.327Z,33.60
2023-08-09T16:12:46.384Z,32.97
2023-08-09T16:15:13.371Z,33.66
2023-08-09T16:17:40.438Z,33.54
2023-08-09T16:20:10.191Z,33.31
2023-08-09T16:22:37.405Z,33.28
2023-08-09T16:25:05.879Z,33.21
2023-08-09T16:27:35.698Z,33.62
2023-08-09T16:30:02.893Z,33.94
2023-08-09T16:32:29.876Z,34.04
2023-08-09T16:34:56.905Z,33.62
2023-08-09T16:37:25.328Z,33.26
2023-08-09T16:39:55.186Z,33.84
2023-08-09T16:42:23.136Z,33.75
2023-08-09T16:44:50.162Z,34.08
2023-08-09T16:47:17.157Z,34.35
2023-08-09T16:49:44.267Z,34.05
2023-08-09T16:52:11.306Z,34.03
2023-08-09T16:54:39.621Z,35.07
2023-08-09T16:57:07.008Z,35.08
2023-08-09T16:59:34.708Z,35.75
2023-08-09T17:02:03.717Z,35.72
2023-08-09T17:04:31.304Z,36.17
2023-08-09T17:06:58.374Z,37.09
2023-08-09T17:09:25.416Z,37.46
2023-08-09T17:11:53.706Z,37.27
2023-08-09T17:14:21.038Z,37.99
2023-08-09T17:16:47.984Z,37.68
2023-08-09T17:19:15.338Z,38.26
2023-08-09T17:21:42.350Z,37.99
2023-08-09T17:24:09.375Z,37.89
2023-08-09T17:26:36.715Z,37.89
2023-08-09T17:29:05.254Z,37.75
2023-08-09T17:31:32.338Z,37.59
2023-08-09T17:33:59.398Z,36.50
2023-08-09T17:36:26.376Z,36.71
2023-08-09T17:38:53.465Z,37.03
2023-08-09T17:41:20.426Z,37.16
2023-08-09T17:43:47.448Z,36.85
2023-08-09T17:46:15.817Z,37.41
2023-08-09T17:48:42.901Z,36.98
2023-08-09T17:51:09.927Z,37.86
2023-08-09T17:53:36.956Z,37.99
2023-08-09T17:56:04.710Z,37.85
2023-08-09T17:58:31.723Z,37.86
2023-08-09T18:00:58.696Z,38.66
2023-08-09T18:03:27.040Z,38.57
2023-08-09T18:05:54.033Z,38.59
2023-08-09T18:08:21.027Z,38.74
2023-08-09T18:10:49.700Z,39.87
2023-08-09T18:13:18.441Z,40.16
2023-08-09T18:15:45.482Z,40.10
2023-08-09T18:18:12.556Z,40.70
2023-08-09T18:20:41.028Z,40.37
2023-08-09T18:23:08.059Z,40.90
2023-08-09T18:25:35.111Z,40.99
2023-08-09T18:28:02.437Z,41.54
2023-08-09T18:30:29.466Z,41.15
2023-08-09T18:32:56.504Z,41.48
2023-08-09T18:35:23.487Z,41.66
2023-08-09T18:37:51.754Z,41.78
2023-08-09T18:40:18.810Z,41.84
2023-08-09T18:42:47.140Z,41.93
2023-08-09T18:45:15.996Z,41.53
2023-08-09T18:47:43.465Z,42.06
2023-08-09T18:50:11.993Z,41.71
2023-08-09T18:52:40.488Z,41.98
2023-08-09T18:55:10.274Z,42.13
2023-08-09T18:57:37.620Z,41.84
2023-08-09T19:00:06.240Z,42.17
2023-08-09T19:02:34.007Z,42.47
2023-08-09T19:05:01.089Z,42.23
2023-08-09T19:07:28.487Z,42.57
2023-08-09T19:09:55.501Z,42.29
2023-08-09T19:12:23.874Z,42.68
2023-08-09T19:14:50.984Z,42.49
2023-08-09T19:17:18.058Z,42.75
2023-08-09T19:19:45.082Z,42.64
2023-08-09T19:22:12.111Z,42.94
2023-08-09T19:24:39.185Z,43.05
2023-08-09T19:27:06.993Z,42.88
2023-08-09T19:29:35.447Z,43.22
2023-08-09T19:32:02.457Z,43.12
2023-08-09T19:34:32.779Z,43.07
2023-08-09T19:37:00.303Z,42.92
2023-08-09T19:39:28.701Z,42.87
2023-08-09T19:41:55.832Z,43.21
2023-08-09T19:44:22.891Z,43.14
2023-08-09T19:46:51.767Z,42.87
2023-08-09T19:49:19.234Z,43.38
2023-08-09T19:51:47.364Z,43.37
2023-08-09T19:54:14.848Z,43.49
2023-08-09T19:56:43.095Z,43.39
2023-08-09T19:59:10.242Z,43.90
2023-08-09T20:01:37.452Z,43.90
2023-08-09T20:04:06.594Z,43.89
2023-08-09T20:06:37.089Z,43.62
2023-08-09T20:09:06.116Z,43.66
2023-08-09T20:11:33.329Z,43.47
2023-08-09T20:14:00.461Z,43.53
2023-08-09T20:16:29.289Z,43.38
2023-08-09T20:18:57.637Z,44.00
2023-08-09T20:21:25.948Z,43.90
2023-08-09T20:23:52.974Z,44.33
2023-08-09T20:26:19.955Z,44.06
2023-08-09T20:28:46.959Z,44.36
2023-08-09T20:31:14.950Z,44.29
2023-08-09T20:33:42.186Z,44.31
2023-08-09T20:36:10.172Z,44.15
2023-08-09T20:38:38.558Z,44.16
2023-08-09T20:41:05.509Z,44.17
2023-08-09T20:43:32.583Z,44.14
2023-08-09T20:46:00.464Z,44.21
2023-08-09T20:48:28.848Z,44.10
2023-08-09T20:50:57.112Z,43.91
2023-08-09T20:53:24.353Z,43.47
2023-08-09T20:55:53.541Z,43.34
2023-08-09T20:58:20.525Z,43.49
2023-08-09T21:00:48.573Z,43.33
2023-08-09T21:03:16.368Z,43.06
2023-08-09T21:05:43.415Z,43.14
2023-08-09T21:08:10.478Z,43.07
2023-08-09T21:10:37.450Z,42.81
2023-08-09T21:13:05.881Z,42.70
2023-08-09T21:15:34.193Z,42.75
2023-08-09T21:18:01.741Z,43.28
2023-08-09T21:20:28.817Z,43.30
2023-08-09T21:22:57.708Z,43.45
2023-08-09T21:27:54.929Z,43.72
2023-08-09T21:30:23.244Z,43.79
2023-08-09T21:32:50.291Z,43.74
2023-08-09T21:35:17.615Z,43.96
2023-08-09T21:37:44.605Z,43.98
2023-08-09T21:40:12.709Z,43.86
2023-08-09T21:42:39.719Z,44.01
2023-08-09T21:45:09.308Z,44.04
2023-08-09T21:47:38.624Z,44.22
2023-08-09T21:50:07.285Z,44.26
2023-08-09T21:52:34.488Z,44.33
2023-08-09T21:55:01.501Z,43.94
2023-08-09T21:57:28.479Z,44.45
2023-08-09T21:59:55.621Z,45.06
2023-08-09T22:02:22.642Z,45.45
2023-08-09T22:04:51.070Z,45.66
2023-08-09T22:07:18.054Z,45.29
2023-08-09T22:09:45.208Z,45.70
2023-08-09T22:12:12.386Z,45.87
2023-08-09T22:14:39.371Z,45.77
2023-08-09T22:17:06.558Z,46.18
2023-08-09T22:19:33.533Z,46.75
2023-08-09T22:24:31.958Z,46.38
2023-08-09T22:26:58.954Z,46.44
2023-08-09T22:29:25.993Z,46.65
2023-08-09T22:31:53.710Z,46.55
2023-08-09T22:34:21.307Z,46.90
2023-08-09T22:36:48.290Z,47.00
2023-08-09T22:39:16.587Z,46.57
2023-08-09T22:41:44.369Z,47.18
2023-08-09T22:44:11.445Z,46.91
2023-08-09T22:46:38.461Z,47.05
2023-08-09T22:49:05.679Z,46.87
2023-08-09T22:51:32.630Z,47.22
2023-08-09T22:53:59.593Z,46.81
2023-08-09T22:56:28.986Z,46.25
2023-08-09T22:58:55.946Z,46.25
2023-08-09T23:01:23.379Z,46.55
2023-08-09T23:03:50.438Z,46.77
2023-08-09T23:06:17.452Z,46.29
2023-08-09T23:08:44.433Z,46.50
2023-08-09T23:11:11.382Z,46.28
2023-08-09T23:13:40.672Z,46.15
2023-08-09T23:16:07.651Z,46.27
2023-08-09T23:18:38.941Z,46.09
2023-08-09T23:21:06.404Z,46.23
2023-08-09T23:23:33.732Z,46.21
2023-08-09T23:26:04.028Z,46.29
2023-08-09T23:28:31.033Z,46.23
2023-08-09T23:31:00.880Z,46.13
2023-08-09T23:33:28.157Z,46.40
2023-08-09T23:35:55.752Z,46.56
2023-08-09T23:38:23.687Z,46.21
2023-08-09T23:40:50.700Z,46.56
2023-08-09T23:43:18.155Z,46.30
2023-08-09T23:45:45.194Z,46.58
2023-08-09T23:48:13.954Z,46.60
2023-08-09T23:50:42.367Z,47.35
2023-08-09T23:53:10.186Z,46.95
2023-08-09T23:55:37.470Z,47.33
2023-08-09T23:58:04.484Z,46.95
